sensor_id;sensor_type;location;lat;lon;timestamp;pressure;altitude;pressure_sealevel;temperature;humidity
76637;BME280;65532;52.124;5.480;2023-09-19T00:02:18;100699.22;;;13.53;69.45
76637;BME280;65532;52.124;5.480;2023-09-19T00:04:45;100694.31;;;13.50;70.02
76637;BME280;65532;52.124;5.480;2023-09-19T00:07:11;100695.63;;;13.47;70.49
76637;BME280;65532;52.124;5.480;2023-09-19T00:09:38;100701.59;;;13.44;70.57
76637;BME280;65532;52.124;5.480;2023-09-19T00:12:05;100709.19;;;13.42;71.30
76637;BME280;65532;52.124;5.480;2023-09-19T00:14:32;100711.09;;;13.42;70.93
76637;BME280;65532;52.124;5.480;2023-09-19T00:17:03;100714.03;;;13.40;70.59
76637;BME280;65532;52.124;5.480;2023-09-19T00:19:35;100712.38;;;13.39;70.01
76637;BME280;65532;52.124;5.480;2023-09-19T00:22:02;100711.81;;;13.37;69.10
76637;BME280;65532;52.124;5.480;2023-09-19T00:24:29;100718.34;;;13.36;67.97
76637;BME280;65532;52.124;5.480;2023-09-19T00:26:55;100711.81;;;13.37;67.44
76637;BME280;65532;52.124;5.480;2023-09-19T00:29:22;100709.38;;;13.36;66.78
76637;BME280;65532;52.124;5.480;2023-09-19T00:31:49;100715.06;;;13.34;66.51
76637;BME280;65532;52.124;5.480;2023-09-19T00:34:16;100717.22;;;13.32;65.88
76637;BME280;65532;52.124;5.480;2023-09-19T00:36:43;100718.28;;;13.31;66.91
76637;BME280;65532;52.124;5.480;2023-09-19T00:39:10;100722.09;;;13.30;66.26
76637;BME280;65532;52.124;5.480;2023-09-19T00:41:37;100715.00;;;13.29;65.11
76637;BME280;65532;52.124;5.480;2023-09-19T00:44:04;100722.91;;;13.31;64.16
76637;BME280;65532;52.124;5.480;2023-09-19T00:46:31;100725.38;;;13.32;63.15
76637;BME280;65532;52.124;5.480;2023-09-19T00:48:59;100727.56;;;13.35;62.68
76637;BME280;65532;52.124;5.480;2023-09-19T00:51:26;100720.25;;;13.36;61.91
76637;BME280;65532;52.124;5.480;2023-09-19T00:53:54;100726.75;;;13.35;61.20
76637;BME280;65532;52.124;5.480;2023-09-19T00:56:20;100722.69;;;13.37;60.23
76637;BME280;65532;52.124;5.480;2023-09-19T00:58:47;100733.56;;;13.37;60.22
76637;BME280;65532;52.124;5.480;2023-09-19T01:01:14;100736.03;;;13.39;59.20
76637;BME280;65532;52.124;5.480;2023-09-19T01:03:42;100727.63;;;13.40;58.87
76637;BME280;65532;52.124;5.480;2023-09-19T01:06:12;100736.38;;;13.42;58.33
76637;BME280;65532;52.124;5.480;2023-09-19T01:08:38;100738.84;;;13.44;57.99
76637;BME280;65532;52.124;5.480;2023-09-19T01:11:16;100742.97;;;13.46;57.59
76637;BME280;65532;52.124;5.480;2023-09-19T01:13:56;100739.16;;;13.47;57.01
76637;BME280;65532;52.124;5.480;2023-09-19T01:16:45;100739.47;;;13.51;57.26
76637;BME280;65532;52.124;5.480;2023-09-19T01:22:23;100736.22;;;13.54;56.43
76637;BME280;65532;52.124;5.480;2023-09-19T01:30:35;100747.38;;;13.53;57.59
76637;BME280;65532;52.124;5.480;2023-09-19T01:33:06;100744.41;;;13.54;56.71
76637;BME280;65532;52.124;5.480;2023-09-19T01:35:33;100747.69;;;13.56;55.90
76637;BME280;65532;52.124;5.480;2023-09-19T01:38:00;100747.19;;;13.59;55.07
76637;BME280;65532;52.124;5.480;2023-09-19T01:40:27;100745.31;;;13.60;54.18
76637;BME280;65532;52.124;5.480;2023-09-19T01:42:59;100734.97;;;13.62;53.77
76637;BME280;65532;52.124;5.480;2023-09-19T01:45:56;100737.44;;;13.63;52.27
76637;BME280;65532;52.124;5.480;2023-09-19T01:48:29;100751.88;;;13.64;52.20
76637;BME280;65532;52.124;5.480;2023-09-19T01:51:05;100749.16;;;13.64;52.70
76637;BME280;65532;52.124;5.480;2023-09-19T01:53:55;100756.22;;;13.65;53.28
76637;BME280;65532;52.124;5.480;2023-09-19T01:56:34;100759.22;;;13.63;54.35
76637;BME280;65532;52.124;5.480;2023-09-19T01:59:06;100760.03;;;13.64;56.45
76637;BME280;65532;52.124;5.480;2023-09-19T02:01:36;100759.78;;;13.65;59.11
76637;BME280;65532;52.124;5.480;2023-09-19T02:04:04;100755.41;;;13.64;62.26
76637;BME280;65532;52.124;5.480;2023-09-19T02:06:32;100760.03;;;13.64;65.65
76637;BME280;65532;52.124;5.480;2023-09-19T02:09:00;100758.41;;;13.63;68.93
76637;BME280;65532;52.124;5.480;2023-09-19T02:11:26;100759.47;;;13.62;70.87
76637;BME280;65532;52.124;5.480;2023-09-19T02:13:53;100759.72;;;13.60;73.26
76637;BME280;65532;52.124;5.480;2023-09-19T02:16:22;100757.25;;;13.59;75.32
76637;BME280;65532;52.124;5.480;2023-09-19T02:18:49;100757.25;;;13.59;77.66
76637;BME280;65532;52.124;5.480;2023-09-19T02:21:19;100749.34;;;13.57;80.41
76637;BME280;65532;52.124;5.480;2023-09-19T02:23:48;100745.22;;;13.55;83.17
76637;BME280;65532;52.124;5.480;2023-09-19T02:26:15;100759.34;;;13.52;85.16
76637;BME280;65532;52.124;5.480;2023-09-19T02:28:42;100757.13;;;13.48;87.30
76637;BME280;65532;52.124;5.480;2023-09-19T02:31:09;100762.00;;;13.46;88.87
76637;BME280;65532;52.124;5.480;2023-09-19T02:33:35;100764.72;;;13.46;89.72
76637;BME280;65532;52.124;5.480;2023-09-19T02:36:03;100764.16;;;13.44;90.75
76637;BME280;65532;52.124;5.480;2023-09-19T02:38:30;100762.50;;;13.43;91.91
76637;BME280;65532;52.124;5.480;2023-09-19T02:40:57;100767.13;;;13.43;92.83
76637;BME280;65532;52.124;5.480;2023-09-19T02:43:23;100767.59;;;13.40;93.91
76637;BME280;65532;52.124;5.480;2023-09-19T02:45:50;100770.56;;;13.38;95.27
76637;BME280;65532;52.124;5.480;2023-09-19T02:48:17;100759.06;;;13.31;96.05
76637;BME280;65532;52.124;5.480;2023-09-19T02:50:46;100769.38;;;13.29;97.09
76637;BME280;65532;52.124;5.480;2023-09-19T02:53:12;100773.66;;;13.25;98.13
76637;BME280;65532;52.124;5.480;2023-09-19T02:55:40;100768.41;;;13.18;99.07
76637;BME280;65532;52.124;5.480;2023-09-19T02:58:07;100760.97;;;13.14;99.50
76637;BME280;65532;52.124;5.480;2023-09-19T03:00:41;100752.50;;;13.10;100.00
76637;BME280;65532;52.124;5.480;2023-09-19T03:03:08;100771.75;;;13.09;100.00
76637;BME280;65532;52.124;5.480;2023-09-19T03:05:35;100784.22;;;13.05;100.00
76637;BME280;65532;52.124;5.480;2023-09-19T03:08:02;100776.31;;;13.03;100.00
76637;BME280;65532;52.124;5.480;2023-09-19T03:10:30;100768.91;;;12.99;100.00
76637;BME280;65532;52.124;5.480;2023-09-19T03:12:58;100766.69;;;12.96;100.00
76637;BME280;65532;52.124;5.480;2023-09-19T03:15:26;100757.38;;;12.92;100.00
76637;BME280;65532;52.124;5.480;2023-09-19T03:17:53;100766.28;;;12.87;100.00
76637;BME280;65532;52.124;5.480;2023-09-19T03:20:22;100765.97;;;12.83;100.00
76637;BME280;65532;52.124;5.480;2023-09-19T03:22:49;100764.81;;;12.79;100.00
76637;BME280;65532;52.124;5.480;2023-09-19T03:25:16;100769.06;;;12.75;100.00
76637;BME280;65532;52.124;5.480;2023-09-19T03:27:46;100768.75;;;12.72;100.00
76637;BME280;65532;52.124;5.480;2023-09-19T03:30:13;100772.22;;;12.67;100.00
76637;BME280;65532;52.124;5.480;2023-09-19T03:32:48;100765.63;;;12.63;100.00
76637;BME280;65532;52.124;5.480;2023-09-19T03:35:17;100770.47;;;12.61;100.00
76637;BME280;65532;52.124;5.480;2023-09-19T03:37:45;100767.19;;;12.59;100.00
76637;BME280;65532;52.124;5.480;2023-09-19T03:40:13;100774.19;;;12.55;100.00
76637;BME280;65532;52.124;5.480;2023-09-19T03:42:41;100768.16;;;12.53;100.00
76637;BME280;65532;52.124;5.480;2023-09-19T03:45:11;100754.53;;;12.48;100.00
76637;BME280;65532;52.124;5.480;2023-09-19T03:47:43;100757.69;;;12.45;100.00
76637;BME280;65532;52.124;5.480;2023-09-19T03:50:10;100751.69;;;12.43;100.00
76637;BME280;65532;52.124;5.480;2023-09-19T03:52:44;100753.25;;;12.39;100.00
76637;BME280;65532;52.124;5.480;2023-09-19T03:55:11;100767.91;;;12.38;100.00
76637;BME280;65532;52.124;5.480;2023-09-19T03:57:39;100760.25;;;12.35;100.00
76637;BME280;65532;52.124;5.480;2023-09-19T04:00:06;100762.41;;;12.33;100.00
76637;BME280;65532;52.124;5.480;2023-09-19T04:02:41;100774.34;;;12.32;100.00
76637;BME280;65532;52.124;5.480;2023-09-19T04:05:08;100777.63;;;12.34;100.00
76637;BME280;65532;52.124;5.480;2023-09-19T04:07:35;100792.25;;;12.33;100.00
76637;BME280;65532;52.124;5.480;2023-09-19T04:10:02;100783.50;;;12.30;100.00
76637;BME280;65532;52.124;5.480;2023-09-19T04:12:29;100792.72;;;12.29;100.00
76637;BME280;65532;52.124;5.480;2023-09-19T04:14:56;100798.16;;;12.29;100.00
76637;BME280;65532;52.124;5.480;2023-09-19T04:17:22;100800.28;;;12.27;100.00
76637;BME280;65532;52.124;5.480;2023-09-19T04:19:50;100794.28;;;12.25;100.00
76637;BME280;65532;52.124;5.480;2023-09-19T04:22:17;100792.97;;;12.28;100.00
76637;BME280;65532;52.124;5.480;2023-09-19T04:24:43;100799.22;;;12.28;100.00
76637;BME280;65532;52.124;5.480;2023-09-19T04:27:10;100804.06;;;12.26;100.00
76637;BME280;65532;52.124;5.480;2023-09-19T04:29:38;100803.25;;;12.26;100.00
76637;BME280;65532;52.124;5.480;2023-09-19T04:32:05;100809.50;;;12.26;100.00
76637;BME280;65532;52.124;5.480;2023-09-19T04:34:32;100822.00;;;12.27;100.00
76637;BME280;65532;52.124;5.480;2023-09-19T04:37:01;100814.13;;;12.26;100.00
76637;BME280;65532;52.124;5.480;2023-09-19T04:39:28;100827.94;;;12.24;100.00
76637;BME280;65532;52.124;5.480;2023-09-19T04:41:55;100828.44;;;12.21;100.00
76637;BME280;65532;52.124;5.480;2023-09-19T04:44:21;100838.22;;;12.22;100.00
76637;BME280;65532;52.124;5.480;2023-09-19T04:46:48;100845.28;;;12.23;100.00
76637;BME280;65532;52.124;5.480;2023-09-19T04:49:15;100843.41;;;12.24;100.00
76637;BME280;65532;52.124;5.480;2023-09-19T04:51:41;100844.22;;;12.24;100.00
76637;BME280;65532;52.124;5.480;2023-09-19T04:54:08;100837.97;;;12.24;100.00
76637;BME280;65532;52.124;5.480;2023-09-19T04:56:35;100839.03;;;12.23;100.00
76637;BME280;65532;52.124;5.480;2023-09-19T04:59:02;100835.50;;;12.22;100.00
76637;BME280;65532;52.124;5.480;2023-09-19T05:01:29;100830.56;;;12.19;100.00
76637;BME280;65532;52.124;5.480;2023-09-19T05:03:55;100828.44;;;12.21;100.00
76637;BME280;65532;52.124;5.480;2023-09-19T05:06:22;100830.56;;;12.19;100.00
76637;BME280;65532;52.124;5.480;2023-09-19T05:08:49;100837.63;;;12.20;100.00
76637;BME280;65532;52.124;5.480;2023-09-19T05:11:21;100836.00;;;12.19;100.00
76637;BME280;65532;52.124;5.480;2023-09-19T05:13:49;100836.00;;;12.19;100.00
76637;BME280;65532;52.124;5.480;2023-09-19T05:16:22;100837.06;;;12.18;100.00
76637;BME280;65532;52.124;5.480;2023-09-19T05:18:49;100843.06;;;12.20;100.00
76637;BME280;65532;52.124;5.480;2023-09-19T05:21:16;100836.81;;;12.20;100.00
76637;BME280;65532;52.124;5.480;2023-09-19T05:23:43;100852.28;;;12.19;100.00
76637;BME280;65532;52.124;5.480;2023-09-19T05:26:10;100845.78;;;12.20;100.00
76637;BME280;65532;52.124;5.480;2023-09-19T05:28:39;100844.72;;;12.21;100.00
76637;BME280;65532;52.124;5.480;2023-09-19T05:31:05;100839.03;;;12.23;100.00
76637;BME280;65532;52.124;5.480;2023-09-19T05:33:32;100847.75;;;12.25;100.00
76637;BME280;65532;52.124;5.480;2023-09-19T05:35:59;100839.94;;;12.28;100.00
76637;BME280;65532;52.124;5.480;2023-09-19T05:38:26;100842.41;;;12.30;100.00
76637;BME280;65532;52.124;5.480;2023-09-19T05:40:53;100834.06;;;12.32;100.00
76637;BME280;65532;52.124;5.480;2023-09-19T05:43:20;100830.03;;;12.34;100.00
76637;BME280;65532;52.124;5.480;2023-09-19T05:45:48;100831.44;;;12.37;100.00
76637;BME280;65532;52.124;5.480;2023-09-19T05:48:15;100838.50;;;12.38;100.00
76637;BME280;65532;52.124;5.480;2023-09-19T05:50:43;100840.16;;;12.39;100.00
76637;BME280;65532;52.124;5.480;2023-09-19T05:53:09;100839.91;;;12.40;100.00
76637;BME280;65532;52.124;5.480;2023-09-19T05:55:39;100849.19;;;12.44;100.00
76637;BME280;65532;52.124;5.480;2023-09-19T05:58:06;100853.94;;;12.49;100.00
76637;BME280;65532;52.124;5.480;2023-09-19T06:00:33;100867.84;;;12.52;100.00
76637;BME280;65532;52.124;5.480;2023-09-19T06:03:03;100855.97;;;12.58;100.00
76637;BME280;65532;52.124;5.480;2023-09-19T06:05:29;100856.31;;;12.62;100.00
76637;BME280;65532;52.124;5.480;2023-09-19T06:07:59;100859.97;;;12.68;100.00
76637;BME280;65532;52.124;5.480;2023-09-19T06:10:27;100861.13;;;12.72;100.00
76637;BME280;65532;52.124;5.480;2023-09-19T06:12:54;100869.59;;;12.75;100.00
76637;BME280;65532;52.124;5.480;2023-09-19T06:15:24;100871.59;;;12.80;100.00
76637;BME280;65532;52.124;5.480;2023-09-19T06:17:54;100879.00;;;12.84;100.00
76637;BME280;65532;52.124;5.480;2023-09-19T06:20:26;100871.19;;;12.88;100.00
76637;BME280;65532;52.124;5.480;2023-09-19T06:22:53;100867.72;;;12.93;100.00
76637;BME280;65532;52.124;5.480;2023-09-19T06:25:21;100865.09;;;12.98;100.00
76637;BME280;65532;52.124;5.480;2023-09-19T06:27:50;100876.88;;;13.03;100.00
76637;BME280;65532;52.124;5.480;2023-09-19T06:30:24;100870.69;;;13.08;100.00
76637;BME280;65532;52.124;5.480;2023-09-19T06:32:56;100872.19;;;13.15;100.00
76637;BME280;65532;52.124;5.480;2023-09-19T06:35:23;100870.41;;;13.21;100.00
76637;BME280;65532;52.124;5.480;2023-09-19T06:37:50;100867.78;;;13.26;100.00
76637;BME280;65532;52.124;5.480;2023-09-19T06:40:17;100862.97;;;13.33;100.00
76637;BME280;65532;52.124;5.480;2023-09-19T06:42:46;100871.78;;;13.40;100.00
76637;BME280;65532;52.124;5.480;2023-09-19T06:45:14;100866.44;;;13.45;100.00
76637;BME280;65532;52.124;5.480;2023-09-19T06:47:45;100872.50;;;13.53;100.00
76637;BME280;65532;52.124;5.480;2023-09-19T06:50:17;100861.72;;;13.58;100.00
76637;BME280;65532;52.124;5.480;2023-09-19T06:52:46;100871.31;;;13.65;100.00
76637;BME280;65532;52.124;5.480;2023-09-19T06:55:17;100862.16;;;13.71;100.00
76637;BME280;65532;52.124;5.480;2023-09-19T06:57:47;100855.47;;;13.79;100.00
76637;BME280;65532;52.124;5.480;2023-09-19T07:00:14;100858.81;;;13.86;100.00
76637;BME280;65532;52.124;5.480;2023-09-19T07:03:02;100849.13;;;13.95;100.00
76637;BME280;65532;52.124;5.480;2023-09-19T07:05:31;100862.28;;;14.03;100.00
76637;BME280;65532;52.124;5.480;2023-09-19T07:07:59;100864.59;;;14.12;100.00
76637;BME280;65532;52.124;5.480;2023-09-19T07:10:26;100866.78;;;14.36;100.00
76637;BME280;65532;52.124;5.480;2023-09-19T07:12:57;100872.25;;;14.63;100.00
76637;BME280;65532;52.124;5.480;2023-09-19T07:15:27;100873.06;;;14.91;100.00
76637;BME280;65532;52.124;5.480;2023-09-19T07:17:54;100866.69;;;15.12;100.00
76637;BME280;65532;52.124;5.480;2023-09-19T07:20:24;100873.69;;;15.35;100.00
76637;BME280;65532;52.124;5.480;2023-09-19T07:22:55;100877.56;;;15.44;99.08
76637;BME280;65532;52.124;5.480;2023-09-19T07:25:21;100877.91;;;15.53;98.36
76637;BME280;65532;52.124;5.480;2023-09-19T07:27:48;100890.31;;;15.66;97.77
76637;BME280;65532;52.124;5.480;2023-09-19T07:30:15;100881.34;;;15.75;97.01
76637;BME280;65532;52.124;5.480;2023-09-19T07:32:42;100885.22;;;15.79;96.39
76637;BME280;65532;52.124;5.480;2023-09-19T07:35:09;100889.03;;;15.83;95.74
76637;BME280;65532;52.124;5.480;2023-09-19T07:37:36;100889.94;;;15.94;95.44
76637;BME280;65532;52.124;5.480;2023-09-19T07:40:03;100900.13;;;16.24;94.84
76637;BME280;65532;52.124;5.480;2023-09-19T07:42:33;100895.31;;;16.57;93.57
76637;BME280;65532;52.124;5.480;2023-09-19T07:45:01;100892.41;;;16.84;91.67
76637;BME280;65532;52.124;5.480;2023-09-19T07:47:28;100899.25;;;17.17;90.58
76637;BME280;65532;52.124;5.480;2023-09-19T07:49:56;100889.16;;;17.22;88.84
76637;BME280;65532;52.124;5.480;2023-09-19T07:52:23;100893.81;;;17.37;88.46
76637;BME280;65532;52.124;5.480;2023-09-19T07:54:50;100900.63;;;17.45;87.25
76637;BME280;65532;52.124;5.480;2023-09-19T07:57:17;100890.47;;;17.76;86.71
76637;BME280;65532;52.124;5.480;2023-09-19T07:59:43;100891.56;;;17.85;85.27
76637;BME280;65532;52.124;5.480;2023-09-19T08:02:10;100899.13;;;18.08;84.61
76637;BME280;65532;52.124;5.480;2023-09-19T08:04:43;100886.31;;;17.93;83.44
76637;BME280;65532;52.124;5.480;2023-09-19T08:07:09;100897.06;;;17.49;83.44
76637;BME280;65532;52.124;5.480;2023-09-19T08:09:37;100888.31;;;17.27;85.29
76637;BME280;65532;52.124;5.480;2023-09-19T08:12:08;100905.03;;;17.05;86.74
76637;BME280;65532;52.124;5.480;2023-09-19T08:14:36;100902.25;;;16.85;87.24
76637;BME280;65532;52.124;5.480;2023-09-19T08:17:04;100897.06;;;16.83;88.12
76637;BME280;65532;52.124;5.480;2023-09-19T08:19:32;100904.47;;;16.93;88.45
76637;BME280;65532;52.124;5.480;2023-09-19T08:21:59;100892.69;;;16.92;88.61
76637;BME280;65532;52.124;5.480;2023-09-19T08:24:27;100891.59;;;16.83;88.62
76637;BME280;65532;52.124;5.480;2023-09-19T08:26:57;100898.16;;;16.82;89.13
76637;BME280;65532;52.124;5.480;2023-09-19T08:29:25;100894.59;;;16.87;89.28
76637;BME280;65532;52.124;5.480;2023-09-19T08:31:55;100894.34;;;16.93;89.71
76637;BME280;65532;52.124;5.480;2023-09-19T08:34:25;100895.72;;;16.91;89.47
76637;BME280;65532;52.124;5.480;2023-09-19T08:36:53;100892.94;;;16.86;89.82
76637;BME280;65532;52.124;5.480;2023-09-19T08:39:24;100894.59;;;16.87;89.93
76637;BME280;65532;52.124;5.480;2023-09-19T08:41:58;100900.88;;;16.82;89.84
76637;BME280;65532;52.124;5.480;2023-09-19T08:44:28;100886.94;;;16.84;90.87
76637;BME280;65532;52.124;5.480;2023-09-19T08:47:08;100881.75;;;16.97;90.35
76637;BME280;65532;52.124;5.480;2023-09-19T08:49:53;100886.69;;;17.05;90.46
76637;BME280;65532;52.124;5.480;2023-09-19T08:52:32;100885.59;;;17.17;90.61
76637;BME280;65532;52.124;5.480;2023-09-19T08:55:06;100886.13;;;17.29;90.43
76637;BME280;65532;52.124;5.480;2023-09-19T08:57:36;100881.75;;;17.38;89.15
76637;BME280;65532;52.124;5.480;2023-09-19T09:00:08;100887.22;;;17.38;88.77
76637;BME280;65532;52.124;5.480;2023-09-19T09:02:39;100875.75;;;17.36;88.14
76637;BME280;65532;52.124;5.480;2023-09-19T09:05:09;100881.72;;;17.48;88.47
76637;BME280;65532;52.124;5.480;2023-09-19T09:07:43;100887.22;;;17.53;87.17
76637;BME280;65532;52.124;5.480;2023-09-19T09:10:10;100880.34;;;17.51;87.10
76637;BME280;65532;52.124;5.480;2023-09-19T09:12:37;100893.22;;;17.60;86.37
76637;BME280;65532;52.124;5.480;2023-09-19T09:15:06;100898.16;;;17.53;86.33
76637;BME280;65532;52.124;5.480;2023-09-19T09:17:33;100881.75;;;17.43;85.92
76637;BME280;65532;52.124;5.480;2023-09-19T09:19:59;100883.38;;;17.54;86.49
76637;BME280;65532;52.124;5.480;2023-09-19T09:22:26;100884.97;;;17.65;86.36
76637;BME280;65532;52.124;5.480;2023-09-19T09:24:56;100884.69;;;17.82;85.16
76637;BME280;65532;52.124;5.480;2023-09-19T09:27:27;100875.94;;;17.80;85.00
76637;BME280;65532;52.124;5.480;2023-09-19T09:29:54;100884.44;;;17.74;85.13
76637;BME280;65532;52.124;5.480;2023-09-19T09:32:29;100868.03;;;17.74;83.46
76637;BME280;65532;52.124;5.480;2023-09-19T09:35:00;100881.69;;;17.84;83.36
76637;BME280;65532;52.124;5.480;2023-09-19T09:37:28;100860.34;;;17.76;82.07
76637;BME280;65532;52.124;5.480;2023-09-19T09:40:03;100862.47;;;17.94;82.01
76637;BME280;65532;52.124;5.480;2023-09-19T09:42:42;100859.91;;;18.18;81.91
76637;BME280;65532;52.124;5.480;2023-09-19T09:47:57;100860.63;;;18.39;80.00
76637;BME280;65532;52.124;5.480;2023-09-19T09:52:56;100852.25;;;18.59;79.54
76637;BME280;65532;52.124;5.480;2023-09-19T09:56:06;100866.34;;;18.42;78.67
76637;BME280;65532;52.124;5.480;2023-09-19T09:58:38;100851.25;;;18.45;79.37
76637;BME280;65532;52.124;5.480;2023-09-19T10:01:07;100859.66;;;18.59;79.48
76637;BME280;65532;52.124;5.480;2023-09-19T10:03:37;100863.50;;;18.68;79.02
76637;BME280;65532;52.124;5.480;2023-09-19T10:06:12;100868.72;;;18.59;78.20
76637;BME280;65532;52.124;5.480;2023-09-19T10:09:09;100844.84;;;18.60;78.87
76637;BME280;65532;52.124;5.480;2023-09-19T10:11:44;100866.25;;;18.58;78.82
76637;BME280;65532;52.124;5.480;2023-09-19T10:14:13;100875.88;;;18.55;77.30
76637;BME280;65532;52.124;5.480;2023-09-19T10:16:46;100871.91;;;18.32;78.04
76637;BME280;65532;52.124;5.480;2023-09-19T10:19:22;100864.28;;;18.14;78.79
76637;BME280;65532;52.124;5.480;2023-09-19T10:21:53;100864.13;;;17.90;79.32
76637;BME280;65532;52.124;5.480;2023-09-19T10:24:21;100869.63;;;17.85;80.67
76637;BME280;65532;52.124;5.480;2023-09-19T10:26:48;100877.84;;;17.85;80.73
76637;BME280;65532;52.124;5.480;2023-09-19T10:29:17;100858.13;;;17.78;80.96
76637;BME280;65532;52.124;5.480;2023-09-19T10:31:47;100854.84;;;17.86;81.68
76637;BME280;65532;52.124;5.480;2023-09-19T10:34:15;100848.47;;;18.01;80.67
76637;BME280;65532;52.124;5.480;2023-09-19T10:36:45;100848.66;;;18.14;80.74
76637;BME280;65532;52.124;5.480;2023-09-19T10:39:15;100848.34;;;18.31;79.78
76637;BME280;65532;52.124;5.480;2023-09-19T10:41:53;100839.69;;;18.53;78.88
76637;BME280;65532;52.124;5.480;2023-09-19T10:44:25;100835.25;;;18.62;78.07
76637;BME280;65532;52.124;5.480;2023-09-19T10:46:52;100839.63;;;18.68;77.96
76637;BME280;65532;52.124;5.480;2023-09-19T10:49:21;100833.59;;;18.61;77.47
76637;BME280;65532;52.124;5.480;2023-09-19T10:51:51;100826.84;;;18.48;77.40
76637;BME280;65532;52.124;5.480;2023-09-19T10:54:22;100818.91;;;18.47;78.45
76637;BME280;65532;52.124;5.480;2023-09-19T10:56:53;100817.31;;;18.36;78.22
76637;BME280;65532;52.124;5.480;2023-09-19T10:59:21;100806.97;;;18.22;78.64
76637;BME280;65532;52.124;5.480;2023-09-19T11:01:55;100812.97;;;18.30;79.53
76637;BME280;65532;52.124;5.480;2023-09-19T11:04:35;100813.47;;;18.37;79.33
76637;BME280;65532;52.124;5.480;2023-09-19T11:07:12;100816.59;;;18.59;80.07
76637;BME280;65532;52.124;5.480;2023-09-19T11:09:59;100804.56;;;18.55;78.48
76637;BME280;65532;52.124;5.480;2023-09-19T11:14:58;100801.75;;;18.70;78.02
76637;BME280;65532;52.124;5.480;2023-09-19T11:17:35;100806.06;;;18.81;78.41
76637;BME280;65532;52.124;5.480;2023-09-19T11:30:40;100798.59;;;19.16;74.74
76637;BME280;65532;52.124;5.480;2023-09-19T11:33:23;100797.94;;;19.29;74.93
76637;BME280;65532;52.124;5.480;2023-09-19T11:43:48;100775.97;;;18.71;74.99
76637;BME280;65532;52.124;5.480;2023-09-19T11:46:19;100782.31;;;18.62;75.95
76637;BME280;65532;52.124;5.480;2023-09-19T11:48:49;100769.47;;;18.57;75.06
76637;BME280;65532;52.124;5.480;2023-09-19T11:51:23;100779.03;;;18.60;75.47
76637;BME280;65532;52.124;5.480;2023-09-19T11:53:55;100782.72;;;18.84;75.00
76637;BME280;65532;52.124;5.480;2023-09-19T11:56:24;100763.69;;;19.22;74.33
76637;BME280;65532;52.124;5.480;2023-09-19T11:58:53;100771.91;;;19.22;73.66
76637;BME280;65532;52.124;5.480;2023-09-19T12:01:25;100770.28;;;19.21;73.70
76637;BME280;65532;52.124;5.480;2023-09-19T12:03:58;100780.16;;;19.22;73.93
76637;BME280;65532;52.124;5.480;2023-09-19T12:06:26;100780.16;;;19.22;73.50
76637;BME280;65532;52.124;5.480;2023-09-19T12:08:53;100787.63;;;19.16;72.96
76637;BME280;65532;52.124;5.480;2023-09-19T12:11:26;100795.41;;;19.04;73.00
76637;BME280;65532;52.124;5.480;2023-09-19T12:13:53;100803.47;;;18.95;73.35
76637;BME280;65532;52.124;5.480;2023-09-19T12:16:25;100792.59;;;18.85;72.65
76637;BME280;65532;52.124;5.480;2023-09-19T12:18:52;100788.97;;;18.90;73.46
76637;BME280;65532;52.124;5.480;2023-09-19T12:21:27;100796.91;;;18.91;72.60
76637;BME280;65532;52.124;5.480;2023-09-19T12:23:59;100796.44;;;18.84;72.97
76637;BME280;65532;52.124;5.480;2023-09-19T12:26:27;100789.03;;;18.84;73.17
76637;BME280;65532;52.124;5.480;2023-09-19T12:28:55;100788.72;;;18.86;72.89
76637;BME280;65532;52.124;5.480;2023-09-19T12:31:22;100784.63;;;18.83;73.58
76637;BME280;65532;52.124;5.480;2023-09-19T12:33:55;100777.59;;;18.72;72.98
76637;BME280;65532;52.124;5.480;2023-09-19T12:36:22;100783.72;;;18.64;73.79
76637;BME280;65532;52.124;5.480;2023-09-19T12:38:56;100782.31;;;18.62;74.23
76637;BME280;65532;52.124;5.480;2023-09-19T12:41:25;100774.38;;;18.65;74.75
76637;BME280;65532;52.124;5.480;2023-09-19T12:43:53;100779.00;;;18.70;74.22
76637;BME280;65532;52.124;5.480;2023-09-19T12:46:21;100788.63;;;18.62;74.24
76637;BME280;65532;52.124;5.480;2023-09-19T12:49:17;100785.66;;;18.53;75.28
76637;BME280;65532;52.124;5.480;2023-09-19T12:51:47;100779.44;;;18.43;75.65
76637;BME280;65532;52.124;5.480;2023-09-19T12:54:14;100781.16;;;18.34;75.87
76637;BME280;65532;52.124;5.480;2023-09-19T12:56:44;100783.38;;;18.26;76.27
76637;BME280;65532;52.124;5.480;2023-09-19T12:59:15;100797.66;;;18.23;76.58
76637;BME280;65532;52.124;5.480;2023-09-19T13:01:42;100788.34;;;18.24;76.74
76637;BME280;65532;52.124;5.480;2023-09-19T13:04:18;100791.88;;;18.25;76.99
76637;BME280;65532;52.124;5.480;2023-09-19T13:06:47;100790.50;;;18.33;77.42
76637;BME280;65532;52.124;5.480;2023-09-19T13:09:17;100786.56;;;18.44;77.33
76637;BME280;65532;52.124;5.480;2023-09-19T13:11:43;100787.06;;;18.51;77.20
76637;BME280;65532;52.124;5.480;2023-09-19T13:14:14;100782.31;;;18.62;77.43
76637;BME280;65532;52.124;5.480;2023-09-19T13:17:01;100775.19;;;18.61;76.95
76637;BME280;65532;52.124;5.480;2023-09-19T13:19:43;100772.19;;;18.62;76.69
76637;BME280;65532;52.124;5.480;2023-09-19T13:25:10;100779.44;;;18.43;76.82
76637;BME280;65532;52.124;5.480;2023-09-19T13:27:42;100792.38;;;18.37;77.77
76637;BME280;65532;52.124;5.480;2023-09-19T13:30:12;100794.88;;;18.29;77.58
76637;BME280;65532;52.124;5.480;2023-09-19T13:32:39;100794.38;;;18.21;78.47
76637;BME280;65532;52.124;5.480;2023-09-19T13:35:07;100797.97;;;18.17;78.83
76637;BME280;65532;52.124;5.480;2023-09-19T13:37:38;100793.28;;;18.22;79.13
76637;BME280;65532;52.124;5.480;2023-09-19T13:40:11;100789.03;;;18.40;78.85